createdAt,value
2023-03-12T00:00:17.108Z,95.28
2023-03-12T00:05:20.193Z,95.97
2023-03-12T00:10:23.262Z,96.78
2023-03-12T00:15:26.475Z,96.96
2023-03-12T00:20:29.485Z,96.75
2023-03-12T00:25:33.315Z,96.89
2023-03-12T00:30:36.872Z,97.83
2023-03-12T00:35:40.434Z,98.14
2023-03-12T00:40:43.860Z,98.90
2023-03-12T00:45:47.322Z,98.98
2023-03-12T00:50:50.670Z,98.87
2023-03-12T00:55:54.145Z,98.53
2023-03-12T01:00:57.330Z,97.98
2023-03-12T01:06:01.002Z,96.91
2023-03-12T01:11:05.007Z,96.27
2023-03-12T01:16:08.755Z,96.46
2023-03-12T01:21:13.953Z,96.35
2023-03-12T01:26:17.666Z,96.45
2023-03-12T01:31:20.951Z,96.74
2023-03-12T01:36:31.067Z,96.54
2023-03-12T01:41:34.403Z,97.45
2023-03-12T01:46:39.642Z,98.19
2023-03-12T01:52:04.070Z,98.50
2023-03-12T01:57:17.419Z,98.24
2023-03-12T02:02:27.237Z,98.47
2023-03-12T02:07:30.686Z,98.62
2023-03-12T02:12:34.383Z,97.85
2023-03-12T02:17:40.654Z,97.96
2023-03-12T02:22:50.035Z,97.51
2023-03-12T02:27:54.020Z,96.97
2023-03-12T02:33:00.376Z,96.59
2023-03-12T02:38:32.954Z,95.70
2023-03-12T02:43:36.169Z,95.44
2023-03-12T02:48:40.115Z,96.05
2023-03-12T02:53:43.461Z,96.16
2023-03-12T02:58:47.125Z,96.28
2023-03-12T03:03:51.543Z,96.65
2023-03-12T03:08:54.801Z,96.69
2023-03-12T03:13:58.718Z,94.27
2023-03-12T03:19:02.975Z,83.88
2023-03-12T03:24:06.818Z,80.22
2023-03-12T03:29:13.397Z,83.14
2023-03-12T03:34:17.105Z,72.11
2023-03-12T03:39:20.471Z,68.57
2023-03-12T03:44:24.311Z,76.64
2023-03-12T03:49:29.192Z,80.14
2023-03-12T03:54:34.118Z,81.62
2023-03-12T03:59:37.520Z,83.78
2023-03-12T04:04:41.242Z,84.94
2023-03-12T04:09:45.725Z,86.72
2023-03-12T04:14:49.288Z,88.99
2023-03-12T04:19:52.596Z,90.50
2023-03-12T04:24:57.113Z,91.84
2023-03-12T04:30:02.855Z,92.79
2023-03-12T04:35:08.902Z,93.32
2023-03-12T04:40:12.513Z,93.01
2023-03-12T04:45:16.186Z,87.80
2023-03-12T04:50:22.806Z,86.39
2023-03-12T04:55:25.958Z,84.60
2023-03-12T05:00:30.153Z,86.77
2023-03-12T05:05:34.222Z,88.32
2023-03-12T05:10:38.024Z,87.96
2023-03-12T05:15:42.154Z,87.41
2023-03-12T05:20:45.961Z,88.39
2023-03-12T05:25:49.755Z,88.49
2023-03-12T05:30:53.076Z,87.42
2023-03-12T05:35:56.667Z,87.67
2023-03-12T05:41:00.955Z,85.49
2023-03-12T05:46:06.751Z,84.98
2023-03-12T05:51:11.592Z,85.41
2023-03-12T05:56:18.035Z,82.53
2023-03-12T06:01:24.504Z,82.36
2023-03-12T06:06:34.697Z,79.00
2023-03-12T06:11:38.409Z,76.44
2023-03-12T06:16:41.736Z,67.93
2023-03-12T06:21:45.400Z,63.97
2023-03-12T06:26:49.626Z,64.91
2023-03-12T06:31:53.681Z,60.49
2023-03-12T06:36:57.380Z,54.29
2023-03-12T06:42:01.551Z,50.40
2023-03-12T06:47:04.884Z,46.74
2023-03-12T06:52:08.094Z,43.43
2023-03-12T06:57:11.455Z,44.48
2023-03-12T07:02:14.992Z,43.87
2023-03-12T07:07:18.571Z,42.18
2023-03-12T07:12:21.717Z,39.77
2023-03-12T07:17:26.079Z,39.82
2023-03-12T07:22:29.802Z,36.84
2023-03-12T07:27:33.316Z,37.51
2023-03-12T07:32:37.149Z,36.69
2023-03-12T07:37:40.405Z,38.33
2023-03-12T07:42:44.639Z,37.99
2023-03-12T07:47:49.556Z,39.07
2023-03-12T07:52:53.312Z,39.04
2023-03-12T07:57:58.789Z,36.26
2023-03-12T08:03:02.242Z,35.31
2023-03-12T08:08:05.824Z,38.28
2023-03-12T08:13:09.316Z,35.98
2023-03-12T08:18:13.738Z,40.13
2023-03-12T08:23:18.609Z,36.90
2023-03-12T08:28:24.677Z,38.14
2023-03-12T08:33:28.201Z,38.89
2023-03-12T08:38:31.900Z,38.42
2023-03-12T08:55:12.760Z,37.65
2023-03-12T09:00:18.249Z,38.36
2023-03-12T09:05:21.839Z,39.35
2023-03-12T09:10:30.204Z,36.71
2023-03-12T09:15:34.694Z,35.87
2023-03-12T09:20:47.713Z,37.52
2023-03-12T09:25:53.041Z,36.59
2023-03-12T09:30:57.058Z,39.63
2023-03-12T09:36:01.219Z,41.07
2023-03-12T09:41:06.718Z,39.59
2023-03-12T09:46:18.325Z,41.05
2023-03-12T09:51:29.292Z,41.37
2023-03-12T09:56:34.741Z,41.48
2023-03-12T10:01:49.405Z,41.31
2023-03-12T10:07:11.705Z,40.95
2023-03-12T10:12:38.114Z,40.16
2023-03-12T10:17:53.161Z,41.72
2023-03-12T10:23:02.195Z,41.77
2023-03-12T10:28:13.901Z,40.62
2023-03-12T10:33:19.100Z,43.09
2023-03-12T10:38:29.733Z,42.10
2023-03-12T10:43:35.806Z,41.97
2023-03-12T10:48:39.548Z,41.54
2023-03-12T10:53:48.551Z,42.29
2023-03-12T10:58:54.057Z,44.06
2023-03-12T11:04:40.874Z,44.86
2023-03-12T11:09:45.484Z,45.16
2023-03-12T11:14:48.758Z,45.62
2023-03-12T11:19:53.502Z,44.07
2023-03-12T11:25:08.301Z,45.47
2023-03-12T11:30:16.707Z,47.71
2023-03-12T11:35:41.922Z,46.39
2023-03-12T11:41:00.408Z,47.27
2023-03-12T11:46:06.216Z,49.14
2023-03-12T11:51:19.618Z,46.57
2023-03-12T11:56:30.165Z,50.23
2023-03-12T12:01:51.533Z,49.59
2023-03-12T12:07:22.943Z,48.77
2023-03-12T12:12:40.282Z,54.19
2023-03-12T12:18:02.700Z,52.57
2023-03-12T12:23:31.104Z,52.74
2023-03-12T12:29:03.564Z,54.48
2023-03-12T12:34:25.646Z,55.49
2023-03-12T12:39:38.222Z,55.95
2023-03-12T12:44:48.214Z,54.16
2023-03-12T12:50:01.885Z,50.48
2023-03-12T12:55:17.294Z,49.62
2023-03-12T13:00:50.432Z,48.11
2023-03-12T13:05:53.469Z,48.39
2023-03-12T13:11:05.837Z,48.79
2023-03-12T13:16:36.207Z,52.39
2023-03-12T13:22:12.960Z,50.71
2023-03-12T13:27:30.163Z,54.50
2023-03-12T13:32:37.422Z,52.99
2023-03-12T13:37:52.646Z,54.55
2023-03-12T13:43:31.329Z,53.90
2023-03-12T13:48:36.940Z,54.54
2023-03-12T13:53:40.904Z,53.40
2023-03-12T13:59:05.449Z,53.87
2023-03-12T14:04:16.599Z,55.89
2023-03-12T14:09:24.768Z,57.17
2023-03-12T14:14:53.347Z,58.30
2023-03-12T14:20:13.812Z,58.64
2023-03-12T14:25:26.117Z,60.49
2023-03-12T14:30:44.297Z,62.71
2023-03-12T14:35:53.928Z,62.03
2023-03-12T14:41:06.263Z,62.67
2023-03-12T14:46:19.659Z,60.00
2023-03-12T14:51:25.057Z,64.49
2023-03-12T14:56:30.847Z,63.38
2023-03-12T15:01:39.790Z,60.33
2023-03-12T15:06:55.858Z,62.52
2023-03-12T15:12:09.104Z,60.96
2023-03-12T15:17:24.526Z,62.29
2023-03-12T15:22:28.290Z,60.60
2023-03-12T15:27:34.136Z,61.61
2023-03-12T15:32:37.822Z,61.14
2023-03-12T15:37:43.248Z,62.80
2023-03-12T15:42:48.225Z,64.98
2023-03-12T15:47:54.612Z,63.93
2023-03-12T15:53:31.344Z,63.37
2023-03-12T15:58:41.424Z,63.29
2023-03-12T16:03:46.122Z,61.70
2023-03-12T16:08:53.397Z,63.23
2023-03-12T16:14:22.430Z,61.78
2023-03-12T16:19:29.671Z,62.18
2023-03-12T16:24:33.040Z,63.11
2023-03-12T16:29:38.521Z,61.84
2023-03-12T16:34:43.184Z,61.96
2023-03-12T16:39:46.806Z,63.10
2023-03-12T16:44:49.979Z,62.26
2023-03-12T16:49:53.103Z,64.25
2023-03-12T16:54:56.724Z,63.99
2023-03-12T17:00:02.324Z,65.49
2023-03-12T17:05:06.703Z,66.54
2023-03-12T17:10:11.641Z,66.82
2023-03-12T17:15:17.891Z,70.76
2023-03-12T17:20:23.543Z,78.47
2023-03-12T17:25:29.369Z,82.74
2023-03-12T17:30:34.695Z,86.18
2023-03-12T17:35:40.106Z,87.92
2023-03-12T17:40:45.490Z,88.92
2023-03-12T17:45:49.281Z,90.75
2023-03-12T17:50:52.444Z,89.20
2023-03-12T17:55:55.747Z,91.95
2023-03-12T18:01:01.737Z,93.51
2023-03-12T18:06:05.161Z,93.48
2023-03-12T18:11:08.454Z,92.00
2023-03-12T18:16:11.816Z,93.44
2023-03-12T18:21:15.367Z,94.18
2023-03-12T18:26:18.946Z,94.74
2023-03-12T18:31:23.160Z,94.10
2023-03-12T18:36:26.378Z,96.02
2023-03-12T18:41:33.038Z,96.40
2023-03-12T18:46:36.636Z,96.34
2023-03-12T18:51:40.312Z,94.87
2023-03-12T18:56:43.526Z,96.44
2023-03-12T19:01:46.748Z,96.35
2023-03-12T19:06:51.912Z,97.13
2023-03-12T19:11:55.826Z,97.30
2023-03-12T19:16:59.428Z,95.03
2023-03-12T19:22:03.877Z,95.27
2023-03-12T19:27:06.995Z,94.48
2023-03-12T19:32:11.017Z,94.88
2023-03-12T19:37:14.239Z,96.22
2023-03-12T19:42:17.796Z,97.79
2023-03-12T19:47:22.662Z,97.47
2023-03-12T19:52:26.210Z,98.77
2023-03-12T19:57:30.137Z,100.00
2023-03-12T20:02:33.685Z,99.27
2023-03-12T20:07:37.132Z,98.85
2023-03-12T20:12:40.348Z,99.18
2023-03-12T20:17:43.778Z,100.00
2023-03-12T20:22:48.404Z,100.00
2023-03-12T20:27:53.503Z,99.87
2023-03-12T20:32:58.447Z,99.54
2023-03-12T20:38:03.383Z,98.92
2023-03-12T20:43:07.509Z,98.74
2023-03-12T20:48:12.401Z,100.00
2023-03-12T20:53:15.604Z,100.00
2023-03-12T20:58:19.312Z,100.00
2023-03-12T21:03:23.022Z,100.00
2023-03-12T21:08:27.014Z,100.00
2023-03-12T21:13:31.191Z,100.00
2023-03-12T21:18:35.138Z,100.00
2023-03-12T21:23:39.708Z,100.00
2023-03-12T21:28:43.896Z,100.00
2023-03-12T21:33:47.898Z,100.00
2023-03-12T21:38:54.108Z,100.00
2023-03-12T21:44:00.932Z,100.00
2023-03-12T21:49:05.142Z,100.00
2023-03-12T21:54:08.921Z,100.00
2023-03-12T21:59:12.104Z,100.00
2023-03-12T22:04:15.192Z,100.00
2023-03-12T22:09:18.932Z,100.00
2023-03-12T22:14:23.957Z,100.00
2023-03-12T22:19:27.628Z,100.00
2023-03-12T22:24:31.335Z,100.00
2023-03-12T22:29:35.430Z,100.00
2023-03-12T22:34:39.487Z,100.00
2023-03-12T22:39:43.525Z,100.00
2023-03-12T22:44:46.811Z,100.00
2023-03-12T22:49:50.278Z,100.00
2023-03-12T22:54:53.795Z,100.00
2023-03-12T22:59:56.876Z,100.00
2023-03-12T23:04:59.960Z,100.00
2023-03-12T23:10:04.697Z,100.00
2023-03-12T23:15:08.758Z,100.00
2023-03-12T23:20:13.713Z,100.00
2023-03-12T23:25:17.393Z,100.00
2023-03-12T23:30:20.664Z,100.00
2023-03-12T23:35:23.734Z,100.00
2023-03-12T23:40:27.407Z,100.00
2023-03-12T23:45:31.116Z,100.00
2023-03-12T23:50:35.777Z,100.00
2023-03-12T23:55:38.786Z,100.00
